Time;durP1;ratioP1;P1;durP2;ratioP2;P2;SDS_P1;SDS_P2;PMS_P1;PMS_P2;Temp;Humidity;BMP_temperature;BMP_pressure;BME280_temperature;BME280_humidity;BME280_pressure;Samples;Min_cycle;Max_cycle;Signal;HPM_P1;HPM_P2
2022/04/20 00:01:37;;;;;;;4.85;2.97;;;;;;;;;;5047619;28;20033;-65
2022/04/20 00:04:03;;;;;;;3.20;2.67;;;;;;;;;;5081933;22;20147;-66
2022/04/20 00:06:30;;;;;;;6.15;2.90;;;;;;;;;;5041723;28;20402;-65
2022/04/20 00:08:56;;;;;;;5.20;3.20;;;;;;;;;;5047355;28;20095;-65
2022/04/20 00:11:22;;;;;;;4.45;2.95;;;;;;;;;;5042050;28;20033;-65
2022/04/20 00:13:48;;;;;;;4.97;3.00;;;;;;;;;;5046802;28;20036;-65
2022/04/20 00:16:15;;;;;;;7.63;3.13;;;;;;;;;;5045915;28;20379;-65
2022/04/20 00:18:41;;;;;;;5.53;2.75;;;;;;;;;;5044258;28;20442;-65
2022/04/20 00:21:07;;;;;;;6.97;3.15;;;;;;;;;;5048320;28;20486;-65
2022/04/20 00:23:33;;;;;;;4.13;2.83;;;;;;;;;;5048910;28;20060;-65
2022/04/20 00:25:59;;;;;;;6.53;2.80;;;;;;;;;;5052932;28;20060;-64
2022/04/20 00:28:26;;;;;;;3.53;2.78;;;;;;;;;;5059693;28;20025;-65
2022/04/20 00:30:52;;;;;;;2.78;2.22;;;;;;;;;;5050805;28;20078;-65
2022/04/20 00:33:17;;;;;;;4.75;3.00;;;;;;;;;;5049763;28;20040;-65
2022/04/20 00:35:44;;;;;;;4.65;2.70;;;;;;;;;;5050602;28;20444;-64
2022/04/20 00:38:10;;;;;;;4.97;2.80;;;;;;;;;;5051960;28;20553;-65
2022/04/20 00:40:36;;;;;;;4.10;2.72;;;;;;;;;;5053282;28;20028;-65
2022/04/20 00:43:02;;;;;;;4.63;2.75;;;;;;;;;;5045937;28;20032;-65
2022/04/20 00:45:29;;;;;;;4.10;2.60;;;;;;;;;;5052172;28;20231;-64
2022/04/20 00:47:57;;;;;;;3.22;2.65;;;;;;;;;;5046348;28;20036;-64
2022/04/20 00:50:23;;;;;;;4.53;2.53;;;;;;;;;;5050990;28;20040;-65
2022/04/20 00:52:49;;;;;;;4.10;2.33;;;;;;;;;;5050955;28;20020;-65
2022/04/20 00:55:15;;;;;;;5.50;2.95;;;;;;;;;;5052369;28;20037;-64
2022/04/20 00:57:41;;;;;;;6.03;2.80;;;;;;;;;;5052722;28;20013;-65
2022/04/20 01:00:07;;;;;;;4.38;2.97;;;;;;;;;;5051830;28;20021;-64
2022/04/20 01:02:33;;;;;;;3.80;2.72;;;;;;;;;;5052275;28;20043;-65
2022/04/20 01:04:59;;;;;;;6.10;3.08;;;;;;;;;;5046509;28;20076;-65
2022/04/20 01:07:25;;;;;;;6.30;2.70;;;;;;;;;;5046054;28;20025;-65
2022/04/20 01:09:51;;;;;;;6.97;2.90;;;;;;;;;;5053359;28;20021;-65
2022/04/20 01:12:18;;;;;;;3.80;2.20;;;;;;;;;;5053671;28;20017;-65
2022/04/20 01:14:45;;;;;;;3.78;2.65;;;;;;;;;;5053164;28;20040;-64
2022/04/20 01:17:11;;;;;;;4.10;3.10;;;;;;;;;;5052361;28;20055;-64
2022/04/20 01:19:41;;;;;;;5.65;2.92;;;;;;;;;;5052921;28;20052;-64
2022/04/20 01:22:08;;;;;;;4.82;2.58;;;;;;;;;;5048794;28;20489;-65
2022/04/20 01:24:35;;;;;;;3.72;2.60;;;;;;;;;;5054242;28;20029;-65
2022/04/20 01:27:01;;;;;;;8.50;3.20;;;;;;;;;;5048323;28;20029;-65
2022/04/20 01:29:28;;;;;;;5.38;2.70;;;;;;;;;;5047924;28;20021;-65
2022/04/20 01:31:55;;;;;;;4.88;2.88;;;;;;;;;;5049807;28;20033;-65
2022/04/20 01:34:21;;;;;;;4.13;2.50;;;;;;;;;;5052416;28;20029;-65
2022/04/20 01:36:47;;;;;;;4.75;2.92;;;;;;;;;;5051779;28;20462;-65
2022/04/20 01:39:34;;;;;;;4.90;2.95;;;;;;;;;;5051834;28;20497;-65
2022/04/20 01:48:14;;;;;;;3.58;2.70;;;;;;;;;;5051126;28;20438;-65
2022/04/20 01:53:25;;;;;;;3.67;2.72;;;;;;;;;;5050642;28;20457;-65
2022/04/20 01:55:51;;;;;;;4.13;2.45;;;;;;;;;;5050440;28;20021;-65
2022/04/20 01:58:17;;;;;;;6.28;2.60;;;;;;;;;;5049097;28;20037;-64
2022/04/20 02:00:43;;;;;;;8.90;2.92;;;;;;;;;;5050636;28;20040;-65
2022/04/20 02:03:10;;;;;;;3.47;2.70;;;;;;;;;;5033210;28;20020;-65
2022/04/20 02:05:36;;;;;;;3.15;2.65;;;;;;;;;;5048572;28;20047;-64
2022/04/20 02:08:02;;;;;;;8.13;3.40;;;;;;;;;;5046121;28;20163;-65
2022/04/20 02:10:28;;;;;;;4.13;2.53;;;;;;;;;;5050205;28;20188;-65
2022/04/20 02:12:54;;;;;;;4.03;2.72;;;;;;;;;;5050185;28;20112;-64
2022/04/20 02:15:20;;;;;;;3.25;2.92;;;;;;;;;;5050281;28;20571;-65
2022/04/20 02:17:46;;;;;;;4.57;3.15;;;;;;;;;;5047774;28;20017;-64
2022/04/20 02:20:12;;;;;;;6.88;3.25;;;;;;;;;;5048883;28;20025;-65
2022/04/20 02:22:38;;;;;;;6.55;3.45;;;;;;;;;;5041330;28;20034;-64
2022/04/20 02:25:04;;;;;;;7.45;2.60;;;;;;;;;;5044197;28;20543;-65
2022/04/20 02:27:31;;;;;;;5.72;3.03;;;;;;;;;;5059584;28;20112;-65
2022/04/20 02:29:57;;;;;;;5.95;2.70;;;;;;;;;;5046063;28;20478;-65
2022/04/20 02:32:23;;;;;;;4.07;2.90;;;;;;;;;;5050440;28;20087;-65
2022/04/20 02:34:49;;;;;;;5.20;2.92;;;;;;;;;;5049794;28;20490;-66
2022/04/20 02:37:15;;;;;;;3.78;3.05;;;;;;;;;;5045945;28;20017;-65
2022/04/20 02:39:42;;;;;;;4.80;3.03;;;;;;;;;;5049776;28;20036;-65
2022/04/20 02:42:08;;;;;;;3.10;2.78;;;;;;;;;;5049618;28;20021;-65
2022/04/20 02:44:34;;;;;;;3.55;2.50;;;;;;;;;;5045258;28;20370;-64
2022/04/20 02:47:01;;;;;;;5.35;2.85;;;;;;;;;;5047404;28;20025;-65
2022/04/20 02:49:27;;;;;;;3.78;2.80;;;;;;;;;;5044795;28;20435;-65
2022/04/20 02:51:53;;;;;;;3.70;2.60;;;;;;;;;;5051085;28;20029;-64
2022/04/20 02:54:19;;;;;;;5.07;2.30;;;;;;;;;;5049187;28;20033;-64
2022/04/20 02:56:45;;;;;;;4.47;2.72;;;;;;;;;;5045348;28;20046;-65
2022/04/20 02:59:11;;;;;;;6.00;2.83;;;;;;;;;;5047271;28;20029;-65
2022/04/20 03:01:37;;;;;;;4.88;2.70;;;;;;;;;;5050154;28;20025;-65
2022/04/20 03:04:03;;;;;;;4.43;3.22;;;;;;;;;;5047963;28;20009;-64
2022/04/20 03:06:29;;;;;;;5.40;2.50;;;;;;;;;;5049463;28;20033;-64
2022/04/20 03:08:55;;;;;;;6.88;3.00;;;;;;;;;;5045709;28;20371;-65
2022/04/20 03:11:22;;;;;;;5.32;3.22;;;;;;;;;;5049882;28;20016;-65
2022/04/20 03:13:48;;;;;;;3.08;2.78;;;;;;;;;;5048257;28;20025;-65
2022/04/20 03:16:15;;;;;;;5.93;3.05;;;;;;;;;;5041957;28;20017;-65
2022/04/20 03:18:41;;;;;;;8.93;3.05;;;;;;;;;;5048895;28;20433;-64
2022/04/20 03:21:07;;;;;;;3.88;2.92;;;;;;;;;;5043918;28;20061;-65
2022/04/20 03:23:33;;;;;;;5.75;3.03;;;;;;;;;;5043933;28;20033;-65
2022/04/20 03:26:00;;;;;;;4.32;3.10;;;;;;;;;;5054434;28;20016;-64
2022/04/20 03:28:26;;;;;;;3.90;3.13;;;;;;;;;;5048165;28;20041;-65
2022/04/20 03:30:52;;;;;;;5.40;3.10;;;;;;;;;;5048025;28;20032;-65
2022/04/20 03:33:18;;;;;;;5.72;3.10;;;;;;;;;;5043192;28;20040;-65
2022/04/20 03:35:44;;;;;;;3.85;2.55;;;;;;;;;;5047841;28;20164;-64
2022/04/20 03:38:11;;;;;;;6.90;3.17;;;;;;;;;;5037970;28;20048;-65
2022/04/20 03:40:37;;;;;;;6.72;3.33;;;;;;;;;;5039379;28;20025;-65
2022/04/20 03:43:03;;;;;;;4.45;3.03;;;;;;;;;;5047377;28;20025;-65
2022/04/20 03:45:29;;;;;;;5.28;3.05;;;;;;;;;;5040390;28;20108;-65
2022/04/20 03:47:56;;;;;;;6.40;3.35;;;;;;;;;;5048181;28;20096;-65
2022/04/20 03:50:22;;;;;;;4.97;3.45;;;;;;;;;;5047420;28;20021;-65
2022/04/20 03:52:48;;;;;;;4.55;3.10;;;;;;;;;;5047678;28;20375;-65
2022/04/20 03:55:14;;;;;;;4.57;3.30;;;;;;;;;;5046867;28;20489;-65
2022/04/20 03:57:40;;;;;;;8.82;3.63;;;;;;;;;;5046196;28;20025;-65
2022/04/20 04:00:07;;;;;;;6.00;3.90;;;;;;;;;;5039867;28;20080;-65
2022/04/20 04:02:33;;;;;;;6.82;3.63;;;;;;;;;;5048698;28;20027;-64
2022/04/20 04:05:01;;;;;;;5.55;3.55;;;;;;;;;;5040041;28;20044;-64
2022/04/20 04:07:27;;;;;;;6.68;3.90;;;;;;;;;;5047968;28;20397;-64
2022/04/20 04:09:53;;;;;;;5.03;3.60;;;;;;;;;;5043578;28;20448;-64
2022/04/20 04:12:25;;;;;;;8.02;3.30;;;;;;;;;;5040518;28;20013;-65
2022/04/20 04:14:51;;;;;;;7.38;4.10;;;;;;;;;;5044645;28;20087;-65
2022/04/20 04:17:17;;;;;;;7.45;3.92;;;;;;;;;;5046740;28;20532;-65
2022/04/20 04:19:43;;;;;;;4.68;3.70;;;;;;;;;;5047985;28;20021;-64
2022/04/20 04:22:09;;;;;;;5.68;3.70;;;;;;;;;;5047148;28;20044;-64
2022/04/20 04:24:35;;;;;;;5.50;3.55;;;;;;;;;;5046733;28;20663;-64
2022/04/20 04:27:03;;;;;;;6.63;3.90;;;;;;;;;;5047172;28;20212;-64
2022/04/20 04:29:29;;;;;;;7.63;4.15;;;;;;;;;;5049567;28;20027;-64
2022/04/20 04:31:55;;;;;;;6.68;4.10;;;;;;;;;;5046408;28;20023;-65
2022/04/20 04:34:21;;;;;;;7.38;4.25;;;;;;;;;;5041770;28;20130;-64
2022/04/20 04:36:47;;;;;;;5.38;3.55;;;;;;;;;;5025979;28;20096;-66
2022/04/20 04:39:17;;;;;;;6.05;3.22;;;;;;;;;;5047820;28;20033;-64
2022/04/20 04:41:44;;;;;;;8.43;4.18;;;;;;;;;;5044750;28;20429;-65
2022/04/20 04:44:10;;;;;;;7.68;4.20;;;;;;;;;;5046984;28;20087;-64
2022/04/20 04:55:30;;;;;;;5.55;3.90;;;;;;;;;;5049024;28;20041;-71
2022/04/20 04:57:56;;;;;;;8.75;3.78;;;;;;;;;;5047289;28;20478;-72
2022/04/20 05:00:23;;;;;;;7.20;4.03;;;;;;;;;;5047335;28;20505;-71
2022/04/20 05:02:49;;;;;;;6.35;4.10;;;;;;;;;;5049409;28;20017;-70
2022/04/20 05:05:15;;;;;;;7.95;4.60;;;;;;;;;;5047393;28;20032;-71
2022/04/20 05:07:42;;;;;;;6.90;3.95;;;;;;;;;;5049921;28;20024;-72
2022/04/20 05:10:08;;;;;;;5.72;4.15;;;;;;;;;;5045703;28;20029;-71
2022/04/20 05:12:35;;;;;;;7.10;3.38;;;;;;;;;;5048644;28;20017;-71
2022/04/20 05:15:01;;;;;;;6.05;4.03;;;;;;;;;;5049088;28;20029;-71
2022/04/20 05:17:27;;;;;;;6.97;4.00;;;;;;;;;;5040822;28;20017;-71
2022/04/20 05:19:53;;;;;;;6.97;4.28;;;;;;;;;;5049030;28;20029;-72
2022/04/20 05:22:19;;;;;;;6.50;4.80;;;;;;;;;;5047701;28;20028;-72
2022/04/20 05:24:45;;;;;;;7.45;4.40;;;;;;;;;;5050846;28;20413;-71
2022/04/20 05:27:13;;;;;;;7.53;4.50;;;;;;;;;;5048972;28;20032;-71
2022/04/20 05:29:39;;;;;;;7.15;4.53;;;;;;;;;;5046185;28;20021;-71
2022/04/20 05:32:05;;;;;;;5.35;4.18;;;;;;;;;;5050542;28;20385;-71
2022/04/20 05:34:33;;;;;;;9.57;4.47;;;;;;;;;;5050653;28;20471;-71
2022/04/20 05:42:28;;;;;;;8.27;4.50;;;;;;;;;;5045141;28;20040;-71
2022/04/20 05:44:55;;;;;;;4.53;3.67;;;;;;;;;;5049387;28;20024;-71
2022/04/20 05:47:21;;;;;;;7.70;4.13;;;;;;;;;;5049694;28;20029;-71
2022/04/20 05:49:47;;;;;;;5.50;3.85;;;;;;;;;;5050003;28;20033;-71
2022/04/20 05:52:13;;;;;;;5.25;3.95;;;;;;;;;;5049594;28;20032;-71
2022/04/20 05:54:39;;;;;;;5.90;4.18;;;;;;;;;;5050692;28;20040;-72
2022/04/20 05:57:05;;;;;;;8.80;4.82;;;;;;;;;;5050557;28;20104;-71
2022/04/20 05:59:31;;;;;;;10.07;4.57;;;;;;;;;;5051759;28;20021;-71
2022/04/20 06:01:57;;;;;;;8.48;4.72;;;;;;;;;;5048521;28;20107;-72
2022/04/20 06:04:25;;;;;;;5.82;4.38;;;;;;;;;;5052603;28;20039;-71
2022/04/20 06:06:51;;;;;;;8.18;4.78;;;;;;;;;;5045579;28;20036;-72
2022/04/20 06:09:17;;;;;;;6.82;4.13;;;;;;;;;;5051106;28;20032;-71
2022/04/20 06:11:43;;;;;;;10.93;4.35;;;;;;;;;;5050697;28;20013;-72
2022/04/20 06:14:09;;;;;;;6.60;4.22;;;;;;;;;;5048843;28;20083;-71
2022/04/20 06:16:35;;;;;;;5.90;4.20;;;;;;;;;;5044302;28;20032;-72
2022/04/20 06:19:01;;;;;;;7.88;4.93;;;;;;;;;;5050152;28;20490;-71
2022/04/20 06:21:27;;;;;;;6.40;4.28;;;;;;;;;;5049388;28;20043;-72
2022/04/20 06:23:53;;;;;;;7.97;4.45;;;;;;;;;;5042926;28;20053;-71
2022/04/20 06:26:20;;;;;;;6.88;4.25;;;;;;;;;;5055573;28;20017;-71
2022/04/20 06:28:46;;;;;;;6.75;4.32;;;;;;;;;;5048637;28;20083;-70
2022/04/20 06:31:12;;;;;;;5.75;4.38;;;;;;;;;;5047588;28;20441;-71
2022/04/20 06:33:38;;;;;;;6.60;4.30;;;;;;;;;;5049815;28;20036;-71
2022/04/20 06:36:04;;;;;;;7.82;4.43;;;;;;;;;;5049220;28;20064;-71
2022/04/20 06:38:30;;;;;;;8.23;4.50;;;;;;;;;;5050142;28;20107;-71
2022/04/20 06:40:57;;;;;;;6.50;4.03;;;;;;;;;;5050838;28;20017;-71
2022/04/20 06:43:24;;;;;;;7.25;4.28;;;;;;;;;;5050154;28;20021;-71
2022/04/20 06:45:50;;;;;;;5.15;4.22;;;;;;;;;;5049644;28;20116;-72
2022/04/20 06:48:16;;;;;;;9.75;5.35;;;;;;;;;;5040854;28;20029;-72
2022/04/20 06:50:43;;;;;;;10.43;4.82;;;;;;;;;;5048431;28;20112;-71
2022/04/20 06:58:33;;;;;;;5.07;4.03;;;;;;;;;;1485679;26;20544;-67
2022/04/20 07:00:59;;;;;;;8.02;4.20;;;;;;;;;;5013273;28;20037;-69
2022/04/20 07:03:25;;;;;;;6.43;5.18;;;;;;;;;;5032236;28;20018;-68
2022/04/20 07:05:52;;;;;;;7.50;4.15;;;;;;;;;;5028270;28;20049;-68
2022/04/20 07:08:19;;;;;;;10.95;4.97;;;;;;;;;;5024381;28;20083;-68
2022/04/20 07:10:46;;;;;;;8.13;5.35;;;;;;;;;;5026085;28;20097;-67
2022/04/20 07:13:12;;;;;;;7.30;4.18;;;;;;;;;;5029213;28;20025;-67
2022/04/20 07:15:38;;;;;;;6.10;4.70;;;;;;;;;;5036819;28;20501;-67
2022/04/20 07:18:05;;;;;;;10.68;4.72;;;;;;;;;;5032227;28;20021;-67
2022/04/20 07:20:31;;;;;;;12.95;4.93;;;;;;;;;;5028672;28;20056;-68
2022/04/20 07:22:57;;;;;;;6.50;4.38;;;;;;;;;;5023087;28;20479;-67
2022/04/20 07:25:25;;;;;;;8.02;4.57;;;;;;;;;;5026694;28;20037;-69
2022/04/20 07:27:51;;;;;;;6.90;4.45;;;;;;;;;;5009805;28;20489;-69
2022/04/20 07:30:17;;;;;;;5.43;4.10;;;;;;;;;;5027507;28;20030;-68
2022/04/20 07:32:44;;;;;;;11.75;4.50;;;;;;;;;;5014437;28;20079;-68
2022/04/20 07:35:10;;;;;;;6.32;4.50;;;;;;;;;;5036296;28;20057;-68
2022/04/20 07:37:36;;;;;;;7.53;4.03;;;;;;;;;;5032170;28;20386;-68
2022/04/20 07:40:03;;;;;;;5.00;3.95;;;;;;;;;;5031787;28;20116;-69
2022/04/20 07:42:29;;;;;;;9.93;4.30;;;;;;;;;;5048160;28;20025;-68
2022/04/20 07:44:56;;;;;;;8.45;4.47;;;;;;;;;;5027142;28;20109;-68
2022/04/20 07:47:27;;;;;;;6.47;4.18;;;;;;;;;;5029523;28;20032;-68
2022/04/20 07:52:39;;;;;;;6.00;3.75;;;;;;;;;;5030325;28;20091;-68
2022/04/20 07:55:09;;;;;;;4.50;3.63;;;;;;;;;;5020156;28;20048;-68
2022/04/20 07:57:35;;;;;;;5.82;4.43;;;;;;;;;;5030546;28;20033;-69
2022/04/20 08:00:02;;;;;;;4.43;3.75;;;;;;;;;;5030661;28;20041;-68
2022/04/20 08:02:28;;;;;;;4.88;3.67;;;;;;;;;;5026880;28;20036;-68
2022/04/20 08:04:54;;;;;;;5.18;3.90;;;;;;;;;;5027869;28;20104;-68
2022/04/20 08:07:20;;;;;;;8.75;3.80;;;;;;;;;;5015992;28;20025;-68
2022/04/20 08:09:46;;;;;;;7.45;3.65;;;;;;;;;;5036733;28;20427;-70
2022/04/20 08:12:12;;;;;;;4.68;3.67;;;;;;;;;;5029589;28;20480;-68
2022/04/20 08:14:38;;;;;;;8.00;3.38;;;;;;;;;;5036874;28;20039;-68
2022/04/20 08:17:04;;;;;;;6.43;3.80;;;;;;;;;;5027803;28;20032;-70
2022/04/20 08:19:30;;;;;;;6.95;3.55;;;;;;;;;;5011993;28;20233;-68
2022/04/20 08:21:56;;;;;;;6.13;3.53;;;;;;;;;;5037571;28;20025;-68
2022/04/20 08:24:22;;;;;;;6.80;2.95;;;;;;;;;;5034514;28;20390;-68
2022/04/20 08:26:48;;;;;;;4.95;4.00;;;;;;;;;;5013339;28;20033;-69
2022/04/20 08:29:15;;;;;;;5.60;3.58;;;;;;;;;;5011670;28;20033;-68
2022/04/20 08:31:41;;;;;;;7.88;3.72;;;;;;;;;;5021576;28;20057;-68
2022/04/20 08:34:07;;;;;;;4.43;3.28;;;;;;;;;;5026350;28;20117;-69
2022/04/20 08:36:33;;;;;;;6.13;3.22;;;;;;;;;;5026406;28;20029;-68
2022/04/20 08:39:00;;;;;;;4.55;3.30;;;;;;;;;;5018772;28;20037;-68
2022/04/20 08:41:26;;;;;;;6.97;3.78;;;;;;;;;;5028533;28;20482;-68
2022/04/20 08:43:52;;;;;;;5.43;4.20;;;;;;;;;;5028606;28;20028;-69
2022/04/20 08:46:18;;;;;;;5.18;3.60;;;;;;;;;;5025597;28;20105;-68
2022/04/20 08:48:45;;;;;;;5.35;3.40;;;;;;;;;;5029888;28;20021;-68
2022/04/20 08:51:11;;;;;;;4.85;3.47;;;;;;;;;;5032610;28;20035;-68
2022/04/20 08:53:37;;;;;;;4.32;3.63;;;;;;;;;;5025881;28;20107;-68
2022/04/20 08:58:50;;;;;;;4.43;3.15;;;;;;;;;;5033984;28;20040;-68
2022/04/20 09:01:17;;;;;;;6.05;3.60;;;;;;;;;;5036832;28;20076;-68
2022/04/20 09:03:44;;;;;;;64.13;5.00;;;;;;;;;;5030978;28;20151;-69
2022/04/20 09:06:11;;;;;;;6.78;3.58;;;;;;;;;;5037371;28;20024;-68
2022/04/20 09:08:38;;;;;;;4.05;3.28;;;;;;;;;;5032400;28;20032;-68
2022/04/20 09:11:04;;;;;;;4.80;3.20;;;;;;;;;;5011300;28;20030;-68
2022/04/20 09:13:32;;;;;;;3.55;2.80;;;;;;;;;;5027987;28;20043;-68
2022/04/20 09:16:05;;;;;;;4.18;3.33;;;;;;;;;;5035411;28;20580;-68
2022/04/20 09:18:31;;;;;;;4.60;3.17;;;;;;;;;;5033885;28;20026;-68
2022/04/20 09:21:10;;;;;;;4.35;3.17;;;;;;;;;;5036938;28;20028;-68
2022/04/20 09:23:36;;;;;;;6.43;3.40;;;;;;;;;;5023975;28;20025;-68
2022/04/20 09:26:08;;;;;;;5.43;3.67;;;;;;;;;;5008826;28;20040;-68
2022/04/20 09:28:36;;;;;;;5.10;3.25;;;;;;;;;;5020386;28;20017;-68
2022/04/20 09:31:02;;;;;;;9.20;3.30;;;;;;;;;;5035821;28;20030;-68
2022/04/20 09:33:42;;;;;;;4.32;3.05;;;;;;;;;;5028122;28;20554;-68
2022/04/20 09:36:08;;;;;;;5.30;2.95;;;;;;;;;;5032825;28;20041;-70
2022/04/20 09:38:41;;;;;;;3.58;3.28;;;;;;;;;;5010232;28;20032;-68
2022/04/20 09:41:08;;;;;;;5.97;3.85;;;;;;;;;;5007964;28;20119;-68
2022/04/20 09:43:35;;;;;;;4.10;3.15;;;;;;;;;;5032177;28;20021;-68
2022/04/20 09:46:02;;;;;;;6.13;3.20;;;;;;;;;;5039541;28;20329;-68
2022/04/20 09:51:21;;;;;;;5.30;3.30;;;;;;;;;;5029409;28;20033;-68
2022/04/20 09:53:50;;;;;;;6.95;3.20;;;;;;;;;;5024683;28;20052;-68
2022/04/20 09:56:24;;;;;;;7.72;3.50;;;;;;;;;;5024686;28;20506;-69
2022/04/20 09:59:00;;;;;;;5.32;3.60;;;;;;;;;;5008685;28;20050;-68
2022/04/20 10:01:31;;;;;;;10.70;3.15;;;;;;;;;;5036194;28;20028;-68
2022/04/20 10:03:57;;;;;;;6.72;2.75;;;;;;;;;;5031807;28;20115;-69
2022/04/20 10:09:33;;;;;;;5.20;3.45;;;;;;;;;;5053832;28;20083;-68
2022/04/20 10:12:00;;;;;;;5.63;3.58;;;;;;;;;;5020771;28;20066;-68
2022/04/20 10:17:13;;;;;;;7.13;3.20;;;;;;;;;;5025581;28;20061;-68
2022/04/20 10:19:40;;;;;;;4.22;2.80;;;;;;;;;;5033275;28;20021;-69
2022/04/20 10:22:08;;;;;;;3.63;2.90;;;;;;;;;;5039394;28;20135;-69
2022/04/20 10:24:38;;;;;;;4.15;3.15;;;;;;;;;;5026154;28;20067;-69
2022/04/20 10:27:06;;;;;;;5.60;2.85;;;;;;;;;;5025056;28;20033;-69
2022/04/20 10:29:43;;;;;;;3.47;2.55;;;;;;;;;;5027800;28;20663;-68
2022/04/20 10:32:29;;;;;;;4.32;2.92;;;;;;;;;;5026404;28;20026;-68
2022/04/20 10:34:56;;;;;;;4.03;2.70;;;;;;;;;;5024331;28;20038;-69
2022/04/20 10:37:28;;;;;;;7.68;2.95;;;;;;;;;;5026330;28;20036;-69
2022/04/20 10:40:12;;;;;;;3.47;2.72;;;;;;;;;;5022306;28;20031;-68
2022/04/20 10:42:38;;;;;;;6.13;2.85;;;;;;;;;;5025681;28;20030;-69
2022/04/20 10:45:06;;;;;;;4.35;2.70;;;;;;;;;;5031725;28;21366;-69
2022/04/20 10:47:34;;;;;;;4.05;2.70;;;;;;;;;;5024930;28;20045;-68
2022/04/20 10:50:18;;;;;;;7.47;3.25;;;;;;;;;;5025146;28;20021;-69
2022/04/20 10:52:48;;;;;;;3.63;2.72;;;;;;;;;;5020238;28;20023;-69
2022/04/20 10:55:15;;;;;;;4.82;2.90;;;;;;;;;;5029771;28;20044;-69
2022/04/20 10:57:42;;;;;;;4.28;2.90;;;;;;;;;;5031191;28;20025;-69
2022/04/20 11:00:17;;;;;;;3.85;2.65;;;;;;;;;;5028110;28;20486;-68
2022/04/20 11:02:50;;;;;;;4.18;3.00;;;;;;;;;;5020531;28;20060;-68
2022/04/20 11:05:16;;;;;;;4.40;3.28;;;;;;;;;;5031852;28;20018;-68
2022/04/20 11:08:03;;;;;;;4.85;3.10;;;;;;;;;;5031662;28;20017;-68
2022/04/20 11:10:29;;;;;;;5.75;3.25;;;;;;;;;;5025020;28;20063;-68
2022/04/20 11:19:06;;;;;;;11.05;3.55;;;;;;;;;;5022892;28;20095;-68
2022/04/20 11:21:32;;;;;;;3.78;2.90;;;;;;;;;;5032997;28;20147;-68
2022/04/20 11:24:08;;;;;;;7.78;3.28;;;;;;;;;;5006527;28;20395;-69
2022/04/20 11:26:39;;;;;;;4.43;3.10;;;;;;;;;;5026962;28;20025;-68
2022/04/20 11:29:12;;;;;;;9.27;3.22;;;;;;;;;;5023684;28;20017;-68
2022/04/20 11:31:48;;;;;;;10.45;3.17;;;;;;;;;;5030498;28;20018;-68
2022/04/20 11:34:15;;;;;;;5.55;3.35;;;;;;;;;;5030910;28;20025;-68
2022/04/20 11:36:43;;;;;;;12.93;3.30;;;;;;;;;;5033437;28;20127;-69
2022/04/20 11:39:09;;;;;;;11.10;3.20;;;;;;;;;;5047975;28;20055;-68
2022/04/20 11:41:35;;;;;;;4.65;3.33;;;;;;;;;;5033649;28;20075;-68
2022/04/20 11:44:04;;;;;;;8.32;3.10;;;;;;;;;;5046461;28;20026;-68
2022/04/20 11:46:32;;;;;;;5.20;4.05;;;;;;;;;;5036800;28;20029;-68
2022/04/20 11:48:58;;;;;;;7.40;3.90;;;;;;;;;;5032939;28;20461;-68
2022/04/20 11:51:27;;;;;;;4.55;3.22;;;;;;;;;;5032300;28;20392;-68
2022/04/20 11:53:54;;;;;;;4.18;3.00;;;;;;;;;;5015545;28;20124;-69
2022/04/20 11:56:37;;;;;;;6.63;3.65;;;;;;;;;;5049327;28;20493;-68
2022/04/20 11:59:08;;;;;;;11.57;4.50;;;;;;;;;;5031834;28;20040;-68
2022/04/20 12:01:35;;;;;;;12.57;3.92;;;;;;;;;;5033677;28;20025;-68
2022/04/20 12:04:10;;;;;;;10.18;4.00;;;;;;;;;;5064369;28;20481;-68
2022/04/20 12:06:36;;;;;;;6.03;3.58;;;;;;;;;;5060898;28;20024;-69
2022/04/20 12:09:02;;;;;;;7.30;3.80;;;;;;;;;;5051106;28;20017;-68
2022/04/20 12:11:33;;;;;;;6.07;3.65;;;;;;;;;;5058062;28;20100;-68
2022/04/20 12:13:59;;;;;;;;;;;;;;;;;;5047007;28;20040;-69
2022/04/20 12:16:25;;;;;;;5.32;3.58;;;;;;;;;;5043532;28;19912;-69
2022/04/20 12:18:52;;;;;;;5.47;3.78;;;;;;;;;;5065478;28;20409;-68
2022/04/20 12:21:36;;;;;;;10.18;3.47;;;;;;;;;;5058927;28;20020;-69
2022/04/20 12:24:03;;;;;;;4.68;3.40;;;;;;;;;;5057524;28;20028;-68
2022/04/20 12:26:29;;;;;;;5.60;3.88;;;;;;;;;;5063135;28;20147;-69
2022/04/20 12:28:59;;;;;;;14.82;3.90;;;;;;;;;;5032919;28;20435;-69
2022/04/20 12:31:25;;;;;;;7.35;3.63;;;;;;;;;;5070098;28;20029;-68
2022/04/20 12:34:08;;;;;;;7.25;3.90;;;;;;;;;;5065921;28;20032;-70
2022/04/20 12:37:03;;;;;;;4.78;3.30;;;;;;;;;;5063781;28;20057;-69
2022/04/20 12:39:38;;;;;;;6.18;3.53;;;;;;;;;;5052401;28;20560;-68
2022/04/20 12:42:11;;;;;;;7.07;4.05;;;;;;;;;;5033446;28;20112;-68
2022/04/20 12:44:38;;;;;;;3.78;3.30;;;;;;;;;;5041709;28;20023;-68
2022/04/20 12:47:16;;;;;;;7.15;3.22;;;;;;;;;;5051413;28;20032;-68
2022/04/20 12:49:43;;;;;;;5.70;3.40;;;;;;;;;;5041866;28;20032;-68
2022/04/20 12:52:12;;;;;;;7.97;3.58;;;;;;;;;;5045925;28;20035;-68
2022/04/20 12:54:42;;;;;;;4.47;3.22;;;;;;;;;;5060154;28;20027;-68
2022/04/20 13:02:58;;;;;;;5.20;3.30;;;;;;;;;;5041166;28;20036;-68
2022/04/20 13:05:24;;;;;;;5.53;3.55;;;;;;;;;;5051247;28;20036;-68
2022/04/20 13:07:51;;;;;;;6.40;3.53;;;;;;;;;;5059517;28;20024;-69
2022/04/20 13:10:17;;;;;;;8.48;4.45;;;;;;;;;;5065311;28;20535;-68
2022/04/20 13:13:01;;;;;;;8.43;3.78;;;;;;;;;;5059470;28;20373;-69
2022/04/20 13:15:30;;;;;;;3.65;2.90;;;;;;;;;;5051361;28;20033;-69
2022/04/20 13:17:58;;;;;;;6.57;3.72;;;;;;;;;;5052879;28;20033;-68
2022/04/20 13:20:25;;;;;;;4.72;3.20;;;;;;;;;;5060376;28;20477;-68
2022/04/20 13:22:52;;;;;;;6.35;3.58;;;;;;;;;;5035178;28;20507;-68
2022/04/20 13:28:08;;;;;;;9.77;3.15;;;;;;;;;;5065567;28;20038;-68
2022/04/20 13:30:35;;;;;;;7.47;3.80;;;;;;;;;;5055608;28;20056;-70
2022/04/20 13:33:02;;;;;;;10.35;3.90;;;;;;;;;;5037332;28;20029;-68
2022/04/20 13:35:28;;;;;;;7.13;4.15;;;;;;;;;;5048385;28;20044;-68
2022/04/20 13:37:55;;;;;;;7.40;3.22;;;;;;;;;;5058078;28;20382;-68
2022/04/20 13:40:21;;;;;;;7.45;3.30;;;;;;;;;;5053029;28;20021;-68
2022/04/20 13:42:50;;;;;;;5.78;3.55;;;;;;;;;;5055137;28;20208;-70
2022/04/20 13:45:17;;;;;;;4.80;3.40;;;;;;;;;;5054811;28;20025;-68
2022/04/20 13:47:43;;;;;;;4.80;4.00;;;;;;;;;;5063870;28;20545;-68
2022/04/20 13:50:09;;;;;;;6.13;3.60;;;;;;;;;;5064622;28;20167;-68
2022/04/20 13:52:41;;;;;;;6.15;3.97;;;;;;;;;;5054180;28;20116;-68
2022/04/20 13:55:35;;;;;;;6.75;3.30;;;;;;;;;;5054613;28;20033;-68
2022/04/20 13:58:13;;;;;;;5.47;3.67;;;;;;;;;;4946956;28;20039;-69
2022/04/20 14:00:41;;;;;;;6.75;3.78;;;;;;;;;;4954309;29;20051;-68
2022/04/20 14:03:16;;;;;;;5.25;3.92;;;;;;;;;;4953855;28;20039;-68
2022/04/20 14:05:47;;;;;;;;;;;;;;;;;;4966324;28;20034;-68
2022/04/20 14:08:23;;;;;;;7.97;3.30;;;;;;;;;;4959050;28;20008;-69
2022/04/20 14:10:50;;;;;;;7.00;4.22;;;;;;;;;;4962324;28;20136;-68
2022/04/20 14:13:17;;;;;;;3.90;3.30;;;;;;;;;;4955745;28;20035;-69
2022/04/20 14:16:03;;;;;;;5.20;3.63;;;;;;;;;;4959893;28;20051;-68
2022/04/20 14:18:29;;;;;;;9.05;3.58;;;;;;;;;;4959459;28;20034;-69
2022/04/20 14:20:57;;;;;;;6.45;3.58;;;;;;;;;;4964884;28;20507;-68
2022/04/20 14:23:25;;;;;;;6.00;3.53;;;;;;;;;;4960089;28;20039;-69
2022/04/20 14:34:08;;;;;;;5.32;3.50;;;;;;;;;;5020516;28;20064;-68
2022/04/20 14:36:37;;;;;;;4.53;3.05;;;;;;;;;;5020750;28;20033;-69
2022/04/20 14:39:03;;;;;;;4.20;3.30;;;;;;;;;;4977982;28;20033;-68
2022/04/20 14:41:45;;;;;;;9.43;4.07;;;;;;;;;;4982708;28;20084;-68
2022/04/20 14:44:12;;;;;;;5.45;2.67;;;;;;;;;;5014626;28;20287;-68
2022/04/20 14:46:40;;;;;;;7.18;3.30;;;;;;;;;;5000620;28;20411;-68
2022/04/20 14:49:12;;;;;;;6.15;3.53;;;;;;;;;;4995209;28;20053;-68
2022/04/20 14:51:39;;;;;;;6.60;3.25;;;;;;;;;;4994475;28;20077;-68
2022/04/20 14:54:07;;;;;;;5.47;3.47;;;;;;;;;;5019742;28;20036;-68
2022/04/20 14:56:37;;;;;;;6.38;3.65;;;;;;;;;;5002948;28;20515;-69
2022/04/20 14:59:05;;;;;;;5.88;3.50;;;;;;;;;;4997869;28;20046;-68
2022/04/20 15:01:33;;;;;;;3.78;3.00;;;;;;;;;;5052268;28;20099;-68
2022/04/20 15:04:12;;;;;;;6.28;3.30;;;;;;;;;;5059652;28;20029;-68
2022/04/20 15:06:41;;;;;;;6.03;3.13;;;;;;;;;;5050969;28;20698;-68
2022/04/20 15:09:10;;;;;;;6.50;3.38;;;;;;;;;;5058905;28;20024;-68
2022/04/20 15:11:41;;;;;;;4.82;2.78;;;;;;;;;;5035899;28;20033;-68
2022/04/20 15:14:19;;;;;;;5.75;3.03;;;;;;;;;;5004903;28;20096;-68
2022/04/20 15:16:56;;;;;;;7.38;3.45;;;;;;;;;;5050916;28;20083;-68
2022/04/20 15:19:27;;;;;;;7.82;2.90;;;;;;;;;;5035737;28;20028;-68
2022/04/20 15:21:58;;;;;;;6.75;3.08;;;;;;;;;;5036573;28;20024;-68
2022/04/20 15:24:24;;;;;;;;;;;;;;;;;;5035626;28;20021;-68
2022/04/20 15:26:50;;;;;;;6.20;3.03;;;;;;;;;;5033495;28;20292;-68
2022/04/20 15:29:24;;;;;;;4.13;2.85;;;;;;;;;;5040904;28;20147;-68
2022/04/20 15:31:56;;;;;;;5.93;3.55;;;;;;;;;;5031819;28;20041;-68
2022/04/20 15:34:24;;;;;;;4.65;3.38;;;;;;;;;;5054638;28;20028;-68
2022/04/20 15:36:52;;;;;;;5.13;3.25;;;;;;;;;;5061220;28;20025;-69
2022/04/20 15:42:23;;;;;;;4.40;3.00;;;;;;;;;;5066346;28;20032;-70
2022/04/20 15:45:07;;;;;;;5.72;3.17;;;;;;;;;;5011990;28;20068;-68
2022/04/20 15:48:08;;;;;;;8.25;3.10;;;;;;;;;;4995464;28;20072;-68
2022/04/20 15:50:40;;;;;;;7.22;3.05;;;;;;;;;;5011416;28;20093;-68
2022/04/20 15:53:06;;;;;;;5.30;3.55;;;;;;;;;;5011288;28;20081;-68
2022/04/20 16:01:05;;;;;;;4.72;2.33;;;;;;;;;;5023526;28;20048;-68
2022/04/20 16:03:31;;;;;;;4.05;2.58;;;;;;;;;;5021343;28;20471;-69